香港 の空港の天気 - METARとTAF

香港国際空港 ( VHHH / HKG ) - 香港 赤リョウ角
飛行場実況気象(Metar)
観測時間12/17 05:30 HKT (12/16 21:30 UTC)
風向・風速北北西 4m/s
視程10km以上
天気現象
少しの雲 雲底高度 1220m
気温15℃
湿度67%
気圧1022hPa
METARVHHH 162130Z 34007KT 310V020 9999 FEW040 15/09 Q1022 NOSIG
過去の天気等 Google飛行場航空写真 Wunderground天気予報

過去48時間のMETAR

飛行場予報(TAF)
発表時間: 12/17 01:00 HKT (12/16 17:00 UTC)
予報対象時間: 17日2時 HKT ~ 18日8時 HKT
風向・風速北北東 5m/s
視程7000m
少しの雲 雲底高度 910m
17日11時 HKT ~ 17日18時 HKT に一時的に
風向・風速北西 5m/s
17日18時 HKT ~ 18日2時 HKT に一時的に
風向・風速不定 3m/s
18日2時 HKT ~ 18日8時 HKT に一時的に
風向・風速東 5m/s
TAF VHHH 161700Z 1618/1724 02010KT 7000 FEW030 TX21/1706Z TN15/1623Z TN16/1723Z
TEMPO 1703/1710 32010KT
TEMPO 1710/1718 VRB05KT
TEMPO 1718/1724 08010KT